sensor_id;sensor_type;location;lat;lon;timestamp;P1;durP1;ratioP1;P2;durP2;ratioP2
23539;SDS011;11947;50.810;4.394;2023-06-24T00:02:11;11.30;;;6.93;;
23539;SDS011;11947;50.810;4.394;2023-06-24T00:04:37;13.50;;;6.93;;
23539;SDS011;11947;50.810;4.394;2023-06-24T00:07:03;11.50;;;6.68;;
23539;SDS011;11947;50.810;4.394;2023-06-24T00:09:29;9.82;;;6.30;;
23539;SDS011;11947;50.810;4.394;2023-06-24T00:11:58;11.10;;;7.00;;
23539;SDS011;11947;50.810;4.394;2023-06-24T00:14:24;10.40;;;6.43;;
23539;SDS011;11947;50.810;4.394;2023-06-24T00:16:51;10.27;;;6.75;;
23539;SDS011;11947;50.810;4.394;2023-06-24T00:19:18;14.63;;;6.13;;
23539;SDS011;11947;50.810;4.394;2023-06-24T00:21:45;9.95;;;6.05;;
23539;SDS011;11947;50.810;4.394;2023-06-24T00:24:12;10.52;;;5.88;;
23539;SDS011;11947;50.810;4.394;2023-06-24T00:26:37;12.32;;;6.78;;
23539;SDS011;11947;50.810;4.394;2023-06-24T00:29:03;11.45;;;6.20;;
23539;SDS011;11947;50.810;4.394;2023-06-24T00:31:28;10.35;;;6.03;;
23539;SDS011;11947;50.810;4.394;2023-06-24T00:33:54;13.38;;;6.78;;
23539;SDS011;11947;50.810;4.394;2023-06-24T00:36:20;10.02;;;6.13;;
23539;SDS011;11947;50.810;4.394;2023-06-24T00:38:46;11.38;;;6.57;;
23539;SDS011;11947;50.810;4.394;2023-06-24T00:41:13;10.02;;;6.18;;
23539;SDS011;11947;50.810;4.394;2023-06-24T00:43:41;11.60;;;6.10;;
23539;SDS011;11947;50.810;4.394;2023-06-24T00:46:08;10.32;;;5.85;;
23539;SDS011;11947;50.810;4.394;2023-06-24T00:48:33;11.75;;;5.97;;
23539;SDS011;11947;50.810;4.394;2023-06-24T00:50:59;16.13;;;6.25;;
23539;SDS011;11947;50.810;4.394;2023-06-24T00:53:25;10.95;;;6.28;;
23539;SDS011;11947;50.810;4.394;2023-06-24T00:55:51;10.45;;;6.28;;
23539;SDS011;11947;50.810;4.394;2023-06-24T00:58:18;10.75;;;6.40;;
23539;SDS011;11947;50.810;4.394;2023-06-24T01:00:45;16.17;;;6.35;;
23539;SDS011;11947;50.810;4.394;2023-06-24T01:03:13;10.63;;;6.18;;
23539;SDS011;11947;50.810;4.394;2023-06-24T01:05:39;12.35;;;6.25;;
23539;SDS011;11947;50.810;4.394;2023-06-24T01:08:11;9.57;;;5.65;;
23539;SDS011;11947;50.810;4.394;2023-06-24T01:10:40;11.32;;;5.93;;
23539;SDS011;11947;50.810;4.394;2023-06-24T01:13:07;10.55;;;6.03;;
23539;SDS011;11947;50.810;4.394;2023-06-24T01:15:33;9.80;;;6.50;;
23539;SDS011;11947;50.810;4.394;2023-06-24T01:31:37;12.10;;;6.43;;
23539;SDS011;11947;50.810;4.394;2023-06-24T01:36:47;11.75;;;6.57;;
23539;SDS011;11947;50.810;4.394;2023-06-24T01:39:25;14.70;;;6.40;;
23539;SDS011;11947;50.810;4.394;2023-06-24T01:41:59;15.07;;;6.63;;
23539;SDS011;11947;50.810;4.394;2023-06-24T01:44:31;11.25;;;6.35;;
23539;SDS011;11947;50.810;4.394;2023-06-24T01:46:58;12.45;;;6.25;;
23539;SDS011;11947;50.810;4.394;2023-06-24T01:49:24;10.75;;;7.00;;
23539;SDS011;11947;50.810;4.394;2023-06-24T01:51:53;10.48;;;6.75;;
23539;SDS011;11947;50.810;4.394;2023-06-24T01:54:22;9.40;;;6.07;;
23539;SDS011;11947;50.810;4.394;2023-06-24T01:56:50;10.80;;;6.57;;
23539;SDS011;11947;50.810;4.394;2023-06-24T01:59:19;10.68;;;6.28;;
23539;SDS011;11947;50.810;4.394;2023-06-24T02:01:46;13.30;;;6.72;;
23539;SDS011;11947;50.810;4.394;2023-06-24T02:04:13;11.48;;;6.65;;
23539;SDS011;11947;50.810;4.394;2023-06-24T02:06:42;13.38;;;6.38;;
23539;SDS011;11947;50.810;4.394;2023-06-24T02:09:09;10.25;;;6.38;;
23539;SDS011;11947;50.810;4.394;2023-06-24T02:11:36;9.57;;;6.22;;
23539;SDS011;11947;50.810;4.394;2023-06-24T02:14:03;10.02;;;6.10;;
23539;SDS011;11947;50.810;4.394;2023-06-24T02:16:31;10.45;;;6.18;;
23539;SDS011;11947;50.810;4.394;2023-06-24T02:18:59;11.18;;;6.80;;
23539;SDS011;11947;50.810;4.394;2023-06-24T02:21:28;10.57;;;6.10;;
23539;SDS011;11947;50.810;4.394;2023-06-24T02:23:54;15.38;;;6.07;;
23539;SDS011;11947;50.810;4.394;2023-06-24T02:26:21;9.45;;;5.97;;
23539;SDS011;11947;50.810;4.394;2023-06-24T02:28:48;12.05;;;6.38;;
23539;SDS011;11947;50.810;4.394;2023-06-24T02:31:15;10.85;;;5.78;;
23539;SDS011;11947;50.810;4.394;2023-06-24T02:33:41;9.70;;;6.03;;
23539;SDS011;11947;50.810;4.394;2023-06-24T02:36:07;9.13;;;5.47;;
23539;SDS011;11947;50.810;4.394;2023-06-24T02:38:33;10.43;;;5.80;;
23539;SDS011;11947;50.810;4.394;2023-06-24T02:40:59;11.60;;;6.00;;
23539;SDS011;11947;50.810;4.394;2023-06-24T02:43:27;9.93;;;5.72;;
23539;SDS011;11947;50.810;4.394;2023-06-24T02:45:53;10.05;;;5.72;;
23539;SDS011;11947;50.810;4.394;2023-06-24T02:48:19;10.32;;;6.22;;
23539;SDS011;11947;50.810;4.394;2023-06-24T02:50:46;12.38;;;6.20;;
23539;SDS011;11947;50.810;4.394;2023-06-24T02:53:12;13.90;;;6.03;;
23539;SDS011;11947;50.810;4.394;2023-06-24T02:55:40;14.15;;;5.60;;
23539;SDS011;11947;50.810;4.394;2023-06-24T02:58:07;10.05;;;5.80;;
23539;SDS011;11947;50.810;4.394;2023-06-24T03:00:37;10.40;;;5.95;;
23539;SDS011;11947;50.810;4.394;2023-06-24T03:03:03;15.65;;;6.22;;
23539;SDS011;11947;50.810;4.394;2023-06-24T03:05:30;12.80;;;6.05;;
23539;SDS011;11947;50.810;4.394;2023-06-24T03:07:57;12.68;;;5.80;;
23539;SDS011;11947;50.810;4.394;2023-06-24T03:10:24;11.23;;;6.03;;
23539;SDS011;11947;50.810;4.394;2023-06-24T03:12:50;9.32;;;5.32;;
23539;SDS011;11947;50.810;4.394;2023-06-24T03:15:17;9.30;;;5.45;;
23539;SDS011;11947;50.810;4.394;2023-06-24T03:17:42;9.80;;;6.47;;
23539;SDS011;11947;50.810;4.394;2023-06-24T03:20:08;10.73;;;5.78;;
23539;SDS011;11947;50.810;4.394;2023-06-24T03:22:34;18.88;;;6.28;;
23539;SDS011;11947;50.810;4.394;2023-06-24T03:25:02;12.93;;;6.25;;
23539;SDS011;11947;50.810;4.394;2023-06-24T03:27:27;11.18;;;5.72;;
23539;SDS011;11947;50.810;4.394;2023-06-24T03:29:53;12.70;;;5.93;;
23539;SDS011;11947;50.810;4.394;2023-06-24T03:32:19;13.32;;;6.28;;
23539;SDS011;11947;50.810;4.394;2023-06-24T03:34:44;11.77;;;6.07;;
23539;SDS011;11947;50.810;4.394;2023-06-24T03:37:10;11.93;;;6.05;;
23539;SDS011;11947;50.810;4.394;2023-06-24T03:39:36;11.18;;;6.03;;
23539;SDS011;11947;50.810;4.394;2023-06-24T03:42:01;15.27;;;6.50;;
23539;SDS011;11947;50.810;4.394;2023-06-24T03:44:27;12.88;;;6.13;;
23539;SDS011;11947;50.810;4.394;2023-06-24T03:46:53;14.55;;;6.43;;
23539;SDS011;11947;50.810;4.394;2023-06-24T03:49:18;10.57;;;6.25;;
23539;SDS011;11947;50.810;4.394;2023-06-24T03:51:44;9.63;;;5.57;;
23539;SDS011;11947;50.810;4.394;2023-06-24T03:54:09;10.27;;;6.00;;
23539;SDS011;11947;50.810;4.394;2023-06-24T03:56:35;12.43;;;6.40;;
23539;SDS011;11947;50.810;4.394;2023-06-24T03:59:01;9.98;;;5.82;;
23539;SDS011;11947;50.810;4.394;2023-06-24T04:01:27;10.68;;;6.40;;
23539;SDS011;11947;50.810;4.394;2023-06-24T04:03:56;11.63;;;5.93;;
23539;SDS011;11947;50.810;4.394;2023-06-24T04:06:22;12.02;;;6.13;;
23539;SDS011;11947;50.810;4.394;2023-06-24T04:08:48;12.98;;;6.72;;
23539;SDS011;11947;50.810;4.394;2023-06-24T04:11:16;13.20;;;6.30;;
23539;SDS011;11947;50.810;4.394;2023-06-24T04:13:41;10.95;;;6.00;;
23539;SDS011;11947;50.810;4.394;2023-06-24T04:16:07;11.27;;;5.85;;
23539;SDS011;11947;50.810;4.394;2023-06-24T04:18:33;11.30;;;5.53;;
23539;SDS011;11947;50.810;4.394;2023-06-24T04:20:59;12.25;;;5.60;;
23539;SDS011;11947;50.810;4.394;2023-06-24T04:23:24;9.23;;;5.63;;
23539;SDS011;11947;50.810;4.394;2023-06-24T04:25:50;10.93;;;5.70;;
23539;SDS011;11947;50.810;4.394;2023-06-24T04:28:15;9.57;;;5.68;;
23539;SDS011;11947;50.810;4.394;2023-06-24T04:30:41;16.70;;;5.97;;
23539;SDS011;11947;50.810;4.394;2023-06-24T04:33:07;12.15;;;5.45;;
23539;SDS011;11947;50.810;4.394;2023-06-24T04:35:32;10.25;;;5.30;;
23539;SDS011;11947;50.810;4.394;2023-06-24T04:37:58;11.10;;;5.57;;
23539;SDS011;11947;50.810;4.394;2023-06-24T04:40:24;8.00;;;5.20;;
23539;SDS011;11947;50.810;4.394;2023-06-24T04:42:49;10.35;;;5.22;;
23539;SDS011;11947;50.810;4.394;2023-06-24T04:45:15;8.75;;;5.55;;
23539;SDS011;11947;50.810;4.394;2023-06-24T04:47:46;8.98;;;5.30;;
23539;SDS011;11947;50.810;4.394;2023-06-24T04:50:11;8.32;;;5.07;;
23539;SDS011;11947;50.810;4.394;2023-06-24T04:52:37;8.32;;;4.70;;
23539;SDS011;11947;50.810;4.394;2023-06-24T04:55:04;9.35;;;5.43;;
23539;SDS011;11947;50.810;4.394;2023-06-24T04:57:30;8.25;;;5.28;;
23539;SDS011;11947;50.810;4.394;2023-06-24T04:59:57;14.30;;;4.72;;
23539;SDS011;11947;50.810;4.394;2023-06-24T05:02:23;7.78;;;4.90;;
23539;SDS011;11947;50.810;4.394;2023-06-24T05:04:49;8.70;;;4.88;;
23539;SDS011;11947;50.810;4.394;2023-06-24T05:07:16;7.43;;;4.57;;
23539;SDS011;11947;50.810;4.394;2023-06-24T05:09:42;7.40;;;4.75;;
23539;SDS011;11947;50.810;4.394;2023-06-24T05:12:08;6.90;;;4.68;;
23539;SDS011;11947;50.810;4.394;2023-06-24T05:14:34;7.57;;;4.50;;
23539;SDS011;11947;50.810;4.394;2023-06-24T05:17:01;9.38;;;4.65;;
23539;SDS011;11947;50.810;4.394;2023-06-24T05:19:27;11.02;;;4.50;;
23539;SDS011;11947;50.810;4.394;2023-06-24T05:21:53;7.28;;;4.50;;
23539;SDS011;11947;50.810;4.394;2023-06-24T05:24:18;6.88;;;4.70;;
23539;SDS011;11947;50.810;4.394;2023-06-24T05:26:45;9.25;;;4.65;;
23539;SDS011;11947;50.810;4.394;2023-06-24T05:29:13;6.65;;;4.30;;
23539;SDS011;11947;50.810;4.394;2023-06-24T05:31:39;9.43;;;4.07;;
23539;SDS011;11947;50.810;4.394;2023-06-24T05:34:05;8.70;;;4.45;;
23539;SDS011;11947;50.810;4.394;2023-06-24T05:36:31;8.27;;;4.20;;
23539;SDS011;11947;50.810;4.394;2023-06-24T05:38:56;7.95;;;4.35;;
23539;SDS011;11947;50.810;4.394;2023-06-24T05:41:22;6.72;;;4.78;;
23539;SDS011;11947;50.810;4.394;2023-06-24T05:43:48;8.13;;;4.03;;
23539;SDS011;11947;50.810;4.394;2023-06-24T05:46:24;7.78;;;4.50;;
23539;SDS011;11947;50.810;4.394;2023-06-24T05:48:50;9.10;;;4.60;;
23539;SDS011;11947;50.810;4.394;2023-06-24T05:51:15;7.15;;;4.13;;
23539;SDS011;11947;50.810;4.394;2023-06-24T05:53:41;7.55;;;3.88;;
23539;SDS011;11947;50.810;4.394;2023-06-24T05:56:06;5.22;;;3.78;;
23539;SDS011;11947;50.810;4.394;2023-06-24T05:58:32;7.28;;;3.90;;
23539;SDS011;11947;50.810;4.394;2023-06-24T06:00:57;6.78;;;3.92;;
23539;SDS011;11947;50.810;4.394;2023-06-24T06:03:25;6.00;;;3.75;;
23539;SDS011;11947;50.810;4.394;2023-06-24T06:05:51;7.82;;;3.67;;
23539;SDS011;11947;50.810;4.394;2023-06-24T06:08:16;7.03;;;4.15;;
23539;SDS011;11947;50.810;4.394;2023-06-24T06:10:42;6.13;;;3.63;;
23539;SDS011;11947;50.810;4.394;2023-06-24T06:13:08;6.88;;;3.90;;
23539;SDS011;11947;50.810;4.394;2023-06-24T06:15:33;6.78;;;3.60;;
23539;SDS011;11947;50.810;4.394;2023-06-24T06:17:59;8.15;;;3.47;;
23539;SDS011;11947;50.810;4.394;2023-06-24T06:20:24;6.50;;;3.95;;
23539;SDS011;11947;50.810;4.394;2023-06-24T06:22:50;6.13;;;3.90;;
23539;SDS011;11947;50.810;4.394;2023-06-24T06:25:16;6.93;;;4.00;;
23539;SDS011;11947;50.810;4.394;2023-06-24T06:27:42;6.57;;;3.97;;
23539;SDS011;11947;50.810;4.394;2023-06-24T06:30:07;7.57;;;4.38;;
23539;SDS011;11947;50.810;4.394;2023-06-24T06:32:33;7.28;;;4.00;;
23539;SDS011;11947;50.810;4.394;2023-06-24T06:34:59;6.57;;;4.03;;
23539;SDS011;11947;50.810;4.394;2023-06-24T06:37:25;9.15;;;4.13;;
23539;SDS011;11947;50.810;4.394;2023-06-24T06:39:50;7.10;;;3.80;;
23539;SDS011;11947;50.810;4.394;2023-06-24T06:42:16;7.13;;;3.95;;
23539;SDS011;11947;50.810;4.394;2023-06-24T06:44:41;7.68;;;3.92;;
23539;SDS011;11947;50.810;4.394;2023-06-24T06:47:07;8.23;;;4.10;;
23539;SDS011;11947;50.810;4.394;2023-06-24T06:49:33;5.93;;;3.50;;
23539;SDS011;11947;50.810;4.394;2023-06-24T06:51:58;7.22;;;4.00;;
23539;SDS011;11947;50.810;4.394;2023-06-24T06:54:24;8.02;;;4.00;;
23539;SDS011;11947;50.810;4.394;2023-06-24T06:56:49;5.50;;;3.75;;
23539;SDS011;11947;50.810;4.394;2023-06-24T06:59:15;8.00;;;3.78;;
23539;SDS011;11947;50.810;4.394;2023-06-24T07:01:41;5.72;;;3.78;;
23539;SDS011;11947;50.810;4.394;2023-06-24T07:04:07;5.05;;;3.67;;
23539;SDS011;11947;50.810;4.394;2023-06-24T07:06:32;5.85;;;3.30;;
23539;SDS011;11947;50.810;4.394;2023-06-24T07:08:58;7.82;;;3.72;;
23539;SDS011;11947;50.810;4.394;2023-06-24T07:11:24;7.15;;;3.47;;
23539;SDS011;11947;50.810;4.394;2023-06-24T07:13:50;5.95;;;3.28;;
23539;SDS011;11947;50.810;4.394;2023-06-24T07:16:16;8.82;;;3.88;;
23539;SDS011;11947;50.810;4.394;2023-06-24T07:18:42;6.68;;;3.30;;
23539;SDS011;11947;50.810;4.394;2023-06-24T07:21:08;4.93;;;3.22;;
23539;SDS011;11947;50.810;4.394;2023-06-24T07:23:34;5.35;;;3.60;;
23539;SDS011;11947;50.810;4.394;2023-06-24T07:26:00;6.80;;;2.92;;
23539;SDS011;11947;50.810;4.394;2023-06-24T07:28:25;6.38;;;3.58;;
23539;SDS011;11947;50.810;4.394;2023-06-24T07:30:51;4.50;;;3.30;;
23539;SDS011;11947;50.810;4.394;2023-06-24T07:33:16;4.75;;;3.60;;
23539;SDS011;11947;50.810;4.394;2023-06-24T07:35:42;4.40;;;3.30;;
23539;SDS011;11947;50.810;4.394;2023-06-24T07:38:07;8.85;;;3.67;;
23539;SDS011;11947;50.810;4.394;2023-06-24T07:40:33;5.70;;;3.83;;
23539;SDS011;11947;50.810;4.394;2023-06-24T07:42:58;7.20;;;3.70;;
23539;SDS011;11947;50.810;4.394;2023-06-24T07:45:25;7.55;;;3.65;;
23539;SDS011;11947;50.810;4.394;2023-06-24T07:47:51;4.90;;;3.50;;
23539;SDS011;11947;50.810;4.394;2023-06-24T07:50:17;6.28;;;3.55;;
23539;SDS011;11947;50.810;4.394;2023-06-24T07:52:42;5.25;;;3.58;;
23539;SDS011;11947;50.810;4.394;2023-06-24T07:55:08;6.93;;;3.72;;
23539;SDS011;11947;50.810;4.394;2023-06-24T07:57:33;4.93;;;3.95;;
23539;SDS011;11947;50.810;4.394;2023-06-24T07:59:59;7.78;;;3.75;;
23539;SDS011;11947;50.810;4.394;2023-06-24T08:02:25;4.35;;;3.47;;
23539;SDS011;11947;50.810;4.394;2023-06-24T08:04:51;4.95;;;3.20;;
23539;SDS011;11947;50.810;4.394;2023-06-24T08:07:17;5.93;;;3.50;;
23539;SDS011;11947;50.810;4.394;2023-06-24T08:09:42;6.85;;;3.63;;
23539;SDS011;11947;50.810;4.394;2023-06-24T08:12:08;6.15;;;3.50;;
23539;SDS011;11947;50.810;4.394;2023-06-24T08:14:34;11.25;;;3.75;;
23539;SDS011;11947;50.810;4.394;2023-06-24T08:17:00;6.20;;;3.30;;
23539;SDS011;11947;50.810;4.394;2023-06-24T08:19:26;4.97;;;3.60;;
23539;SDS011;11947;50.810;4.394;2023-06-24T08:21:52;5.55;;;3.45;;
23539;SDS011;11947;50.810;4.394;2023-06-24T08:24:18;4.53;;;3.33;;
23539;SDS011;11947;50.810;4.394;2023-06-24T08:26:44;3.85;;;3.08;;
23539;SDS011;11947;50.810;4.394;2023-06-24T08:29:09;4.30;;;3.33;;
23539;SDS011;11947;50.810;4.394;2023-06-24T08:31:35;4.70;;;3.58;;
23539;SDS011;11947;50.810;4.394;2023-06-24T08:34:00;4.50;;;3.22;;
23539;SDS011;11947;50.810;4.394;2023-06-24T08:36:31;4.85;;;3.00;;
23539;SDS011;11947;50.810;4.394;2023-06-24T08:38:57;3.75;;;2.95;;
23539;SDS011;11947;50.810;4.394;2023-06-24T08:41:23;5.25;;;3.55;;
23539;SDS011;11947;50.810;4.394;2023-06-24T08:43:52;4.30;;;3.03;;
23539;SDS011;11947;50.810;4.394;2023-06-24T08:46:21;5.10;;;3.42;;
23539;SDS011;11947;50.810;4.394;2023-06-24T08:48:49;6.20;;;2.92;;
23539;SDS011;11947;50.810;4.394;2023-06-24T08:51:24;6.20;;;2.92;;
23539;SDS011;11947;50.810;4.394;2023-06-24T08:53:53;3.95;;;2.78;;
23539;SDS011;11947;50.810;4.394;2023-06-24T08:56:20;3.13;;;2.55;;
23539;SDS011;11947;50.810;4.394;2023-06-24T08:58:45;4.05;;;2.40;;
23539;SDS011;11947;50.810;4.394;2023-06-24T09:01:11;5.80;;;2.80;;
23539;SDS011;11947;50.810;4.394;2023-06-24T09:03:37;2.75;;;2.20;;
23539;SDS011;11947;50.810;4.394;2023-06-24T09:06:03;3.42;;;2.80;;
23539;SDS011;11947;50.810;4.394;2023-06-24T09:08:28;4.32;;;2.58;;
23539;SDS011;11947;50.810;4.394;2023-06-24T09:10:54;4.85;;;2.58;;
23539;SDS011;11947;50.810;4.394;2023-06-24T09:13:20;3.50;;;2.55;;
23539;SDS011;11947;50.810;4.394;2023-06-24T09:15:53;6.13;;;3.13;;
23539;SDS011;11947;50.810;4.394;2023-06-24T09:18:22;2.90;;;2.60;;
23539;SDS011;11947;50.810;4.394;2023-06-24T09:20:56;5.70;;;2.90;;
23539;SDS011;11947;50.810;4.394;2023-06-24T09:23:24;7.28;;;2.80;;
23539;SDS011;11947;50.810;4.394;2023-06-24T09:25:57;4.68;;;2.55;;
23539;SDS011;11947;50.810;4.394;2023-06-24T09:28:29;8.80;;;2.92;;
23539;SDS011;11947;50.810;4.394;2023-06-24T09:31:08;3.88;;;2.58;;
23539;SDS011;11947;50.810;4.394;2023-06-24T09:33:35;4.55;;;3.05;;
23539;SDS011;11947;50.810;4.394;2023-06-24T09:36:04;6.22;;;2.50;;
23539;SDS011;11947;50.810;4.394;2023-06-24T09:38:34;4.75;;;2.83;;
23539;SDS011;11947;50.810;4.394;2023-06-24T09:41:04;4.28;;;3.05;;
23539;SDS011;11947;50.810;4.394;2023-06-24T09:43:33;4.38;;;2.92;;
23539;SDS011;11947;50.810;4.394;2023-06-24T09:46:01;11.18;;;3.08;;
23539;SDS011;11947;50.810;4.394;2023-06-24T09:48:27;3.22;;;2.75;;
23539;SDS011;11947;50.810;4.394;2023-06-24T09:50:54;6.65;;;2.88;;
23539;SDS011;11947;50.810;4.394;2023-06-24T09:53:24;3.95;;;2.47;;
23539;SDS011;11947;50.810;4.394;2023-06-24T09:55:50;3.75;;;2.60;;
23539;SDS011;11947;50.810;4.394;2023-06-24T09:58:18;3.47;;;2.58;;
23539;SDS011;11947;50.810;4.394;2023-06-24T10:00:45;3.85;;;2.72;;
23539;SDS011;11947;50.810;4.394;2023-06-24T10:03:11;2.53;;;2.30;;
23539;SDS011;11947;50.810;4.394;2023-06-24T10:05:37;3.22;;;2.50;;
23539;SDS011;11947;50.810;4.394;2023-06-24T10:08:04;3.47;;;2.78;;
23539;SDS011;11947;50.810;4.394;2023-06-24T10:10:30;5.47;;;2.70;;
23539;SDS011;11947;50.810;4.394;2023-06-24T10:12:56;3.20;;;2.63;;
23539;SDS011;11947;50.810;4.394;2023-06-24T10:15:22;2.92;;;2.63;;
23539;SDS011;11947;50.810;4.394;2023-06-24T10:17:50;3.58;;;2.40;;
23539;SDS011;11947;50.810;4.394;2023-06-24T10:20:25;4.07;;;1.83;;
23539;SDS011;11947;50.810;4.394;2023-06-24T10:22:51;2.85;;;2.20;;
23539;SDS011;11947;50.810;4.394;2023-06-24T10:25:18;4.28;;;2.63;;
23539;SDS011;11947;50.810;4.394;2023-06-24T10:27:44;3.28;;;2.05;;
23539;SDS011;11947;50.810;4.394;2023-06-24T10:30:19;3.75;;;2.55;;
23539;SDS011;11947;50.810;4.394;2023-06-24T10:32:46;3.20;;;2.85;;
23539;SDS011;11947;50.810;4.394;2023-06-24T10:35:27;5.43;;;3.00;;
23539;SDS011;11947;50.810;4.394;2023-06-24T10:37:57;3.00;;;2.70;;
23539;SDS011;11947;50.810;4.394;2023-06-24T10:40:42;3.30;;;2.50;;
23539;SDS011;11947;50.810;4.394;2023-06-24T10:45:49;2.90;;;2.70;;
23539;SDS011;11947;50.810;4.394;2023-06-24T10:48:19;4.82;;;2.78;;
23539;SDS011;11947;50.810;4.394;2023-06-24T10:50:45;3.88;;;2.83;;
23539;SDS011;11947;50.810;4.394;2023-06-24T10:53:12;3.42;;;3.13;;
23539;SDS011;11947;50.810;4.394;2023-06-24T10:55:38;3.35;;;3.05;;
23539;SDS011;11947;50.810;4.394;2023-06-24T10:58:08;4.38;;;2.88;;
23539;SDS011;11947;50.810;4.394;2023-06-24T11:00:34;3.90;;;3.17;;
23539;SDS011;11947;50.810;4.394;2023-06-24T11:03:16;4.28;;;3.08;;
23539;SDS011;11947;50.810;4.394;2023-06-24T11:05:44;4.05;;;2.90;;
23539;SDS011;11947;50.810;4.394;2023-06-24T11:08:10;3.38;;;3.08;;
23539;SDS011;11947;50.810;4.394;2023-06-24T11:10:46;3.35;;;3.05;;
23539;SDS011;11947;50.810;4.394;2023-06-24T11:13:13;4.15;;;3.80;;
23539;SDS011;11947;50.810;4.394;2023-06-24T11:15:39;3.72;;;3.40;;
23539;SDS011;11947;50.810;4.394;2023-06-24T11:18:07;3.75;;;3.45;;
23539;SDS011;11947;50.810;4.394;2023-06-24T11:20:35;3.92;;;3.50;;
23539;SDS011;11947;50.810;4.394;2023-06-24T11:23:06;4.53;;;4.13;;
23539;SDS011;11947;50.810;4.394;2023-06-24T11:28:03;5.45;;;4.70;;
23539;SDS011;11947;50.810;4.394;2023-06-24T11:30:28;4.97;;;4.57;;
23539;SDS011;11947;50.810;4.394;2023-06-24T11:32:59;4.80;;;4.38;;
23539;SDS011;11947;50.810;4.394;2023-06-24T11:35:25;5.32;;;4.93;;
23539;SDS011;11947;50.810;4.394;2023-06-24T11:37:51;5.47;;;5.07;;
23539;SDS011;11947;50.810;4.394;2023-06-24T11:40:17;5.45;;;5.03;;
23539;SDS011;11947;50.810;4.394;2023-06-24T11:42:44;5.85;;;5.45;;
23539;SDS011;11947;50.810;4.394;2023-06-24T11:45:11;5.85;;;5.38;;
23539;SDS011;11947;50.810;4.394;2023-06-24T11:47:40;5.15;;;4.75;;
23539;SDS011;11947;50.810;4.394;2023-06-24T11:50:06;5.28;;;4.95;;
23539;SDS011;11947;50.810;4.394;2023-06-24T11:52:37;4.95;;;4.55;;
23539;SDS011;11947;50.810;4.394;2023-06-24T11:55:18;10.45;;;5.00;;
23539;SDS011;11947;50.810;4.394;2023-06-24T11:57:58;5.40;;;4.90;;
23539;SDS011;11947;50.810;4.394;2023-06-24T12:02:59;5.07;;;4.68;;
23539;SDS011;11947;50.810;4.394;2023-06-24T12:05:27;5.72;;;5.25;;
23539;SDS011;11947;50.810;4.394;2023-06-24T12:07:55;6.10;;;5.68;;
23539;SDS011;11947;50.810;4.394;2023-06-24T12:10:22;6.18;;;5.57;;
23539;SDS011;11947;50.810;4.394;2023-06-24T12:12:48;5.55;;;5.15;;
23539;SDS011;11947;50.810;4.394;2023-06-24T12:15:13;5.93;;;5.53;;
23539;SDS011;11947;50.810;4.394;2023-06-24T12:17:39;5.43;;;4.88;;
23539;SDS011;11947;50.810;4.394;2023-06-24T12:20:05;5.40;;;5.00;;
23539;SDS011;11947;50.810;4.394;2023-06-24T12:22:31;5.50;;;5.10;;
23539;SDS011;11947;50.810;4.394;2023-06-24T12:24:56;5.47;;;5.07;;
23539;SDS011;11947;50.810;4.394;2023-06-24T12:27:22;5.65;;;5.22;;
23539;SDS011;11947;50.810;4.394;2023-06-24T12:29:48;5.40;;;4.97;;
23539;SDS011;11947;50.810;4.394;2023-06-24T12:32:13;5.22;;;4.82;;
23539;SDS011;11947;50.810;4.394;2023-06-24T12:34:39;5.95;;;5.53;;
23539;SDS011;11947;50.810;4.394;2023-06-24T12:37:04;4.90;;;4.60;;
23539;SDS011;11947;50.810;4.394;2023-06-24T12:39:30;6.18;;;5.75;;
23539;SDS011;11947;50.810;4.394;2023-06-24T12:41:56;5.55;;;5.05;;
23539;SDS011;11947;50.810;4.394;2023-06-24T12:44:21;6.40;;;5.90;;
23539;SDS011;11947;50.810;4.394;2023-06-24T12:46:49;6.55;;;6.03;;
23539;SDS011;11947;50.810;4.394;2023-06-24T12:49:15;6.20;;;5.75;;
23539;SDS011;11947;50.810;4.394;2023-06-24T12:51:40;5.07;;;4.68;;
23539;SDS011;11947;50.810;4.394;2023-06-24T12:54:06;5.80;;;5.25;;
23539;SDS011;11947;50.810;4.394;2023-06-24T12:56:32;5.80;;;5.40;;
23539;SDS011;11947;50.810;4.394;2023-06-24T12:59:04;5.85;;;5.35;;
23539;SDS011;11947;50.810;4.394;2023-06-24T13:01:34;5.80;;;5.40;;
23539;SDS011;11947;50.810;4.394;2023-06-24T13:04:00;6.43;;;5.93;;
23539;SDS011;11947;50.810;4.394;2023-06-24T13:06:25;6.43;;;5.93;;
23539;SDS011;11947;50.810;4.394;2023-06-24T13:08:51;5.43;;;4.90;;
23539;SDS011;11947;50.810;4.394;2023-06-24T13:11:17;5.72;;;5.32;;
23539;SDS011;11947;50.810;4.394;2023-06-24T13:13:42;5.40;;;5.00;;
23539;SDS011;11947;50.810;4.394;2023-06-24T13:16:08;6.03;;;5.63;;
23539;SDS011;11947;50.810;4.394;2023-06-24T13:18:34;5.88;;;5.38;;
23539;SDS011;11947;50.810;4.394;2023-06-24T13:21:10;5.28;;;4.88;;
23539;SDS011;11947;50.810;4.394;2023-06-24T13:23:35;5.80;;;5.13;;
23539;SDS011;11947;50.810;4.394;2023-06-24T13:26:03;5.45;;;4.72;;
23539;SDS011;11947;50.810;4.394;2023-06-24T13:28:29;5.32;;;4.82;;
23539;SDS011;11947;50.810;4.394;2023-06-24T13:30:56;5.32;;;4.93;;
23539;SDS011;11947;50.810;4.394;2023-06-24T13:33:25;5.55;;;5.15;;
23539;SDS011;11947;50.810;4.394;2023-06-24T13:35:51;4.88;;;4.47;;
23539;SDS011;11947;50.810;4.394;2023-06-24T13:38:17;5.00;;;4.60;;
23539;SDS011;11947;50.810;4.394;2023-06-24T13:40:43;5.32;;;4.18;;
23539;SDS011;11947;50.810;4.394;2023-06-24T13:43:09;5.10;;;4.70;;
23539;SDS011;11947;50.810;4.394;2023-06-24T13:45:34;5.05;;;4.60;;
23539;SDS011;11947;50.810;4.394;2023-06-24T13:48:00;5.07;;;4.57;;
23539;SDS011;11947;50.810;4.394;2023-06-24T13:50:25;5.20;;;4.43;;
23539;SDS011;11947;50.810;4.394;2023-06-24T13:52:51;4.95;;;4.28;;
23539;SDS011;11947;50.810;4.394;2023-06-24T13:55:17;4.65;;;4.22;;
23539;SDS011;11947;50.810;4.394;2023-06-24T13:57:42;4.53;;;4.13;;
23539;SDS011;11947;50.810;4.394;2023-06-24T14:00:09;4.40;;;4.00;;
23539;SDS011;11947;50.810;4.394;2023-06-24T14:02:35;4.95;;;4.45;;
23539;SDS011;11947;50.810;4.394;2023-06-24T14:05:01;4.47;;;4.10;;
23539;SDS011;11947;50.810;4.394;2023-06-24T14:07:27;4.25;;;3.90;;
23539;SDS011;11947;50.810;4.394;2023-06-24T14:09:54;7.25;;;4.88;;
23539;SDS011;11947;50.810;4.394;2023-06-24T14:12:20;6.25;;;5.07;;
23539;SDS011;11947;50.810;4.394;2023-06-24T14:14:45;4.88;;;4.47;;
23539;SDS011;11947;50.810;4.394;2023-06-24T14:17:11;4.80;;;4.25;;
23539;SDS011;11947;50.810;4.394;2023-06-24T14:19:37;5.43;;;4.20;;
23539;SDS011;11947;50.810;4.394;2023-06-24T14:22:04;4.30;;;3.90;;
23539;SDS011;11947;50.810;4.394;2023-06-24T14:24:30;4.13;;;3.00;;
23539;SDS011;11947;50.810;4.394;2023-06-24T14:26:59;4.10;;;3.70;;
23539;SDS011;11947;50.810;4.394;2023-06-24T14:29:25;4.40;;;3.10;;
23539;SDS011;11947;50.810;4.394;2023-06-24T14:31:54;3.78;;;3.20;;
23539;SDS011;11947;50.810;4.394;2023-06-24T14:34:21;4.10;;;3.22;;
23539;SDS011;11947;50.810;4.394;2023-06-24T14:36:47;3.70;;;3.38;;
23539;SDS011;11947;50.810;4.394;2023-06-24T14:39:14;6.47;;;3.47;;
23539;SDS011;11947;50.810;4.394;2023-06-24T14:41:43;4.55;;;3.20;;
23539;SDS011;11947;50.810;4.394;2023-06-24T14:44:09;4.50;;;2.88;;
23539;SDS011;11947;50.810;4.394;2023-06-24T14:46:35;4.95;;;3.45;;
23539;SDS011;11947;50.810;4.394;2023-06-24T14:49:01;5.07;;;3.65;;
23539;SDS011;11947;50.810;4.394;2023-06-24T14:51:27;3.58;;;3.05;;
23539;SDS011;11947;50.810;4.394;2023-06-24T14:53:53;4.35;;;3.25;;
23539;SDS011;11947;50.810;4.394;2023-06-24T14:56:18;5.95;;;3.08;;
23539;SDS011;11947;50.810;4.394;2023-06-24T14:58:44;4.68;;;3.45;;
23539;SDS011;11947;50.810;4.394;2023-06-24T15:01:11;3.80;;;3.03;;
23539;SDS011;11947;50.810;4.394;2023-06-24T15:03:37;3.00;;;2.58;;
23539;SDS011;11947;50.810;4.394;2023-06-24T15:06:03;4.50;;;3.30;;